createdAt,value
2019-05-26T00:00:02.514Z,6.15
2019-05-26T00:02:31.724Z,6.25
2019-05-26T00:05:00.723Z,6.80
2019-05-26T00:07:30.867Z,6.83
2019-05-26T00:10:00.194Z,6.97
2019-05-26T00:12:29.467Z,7.90
2019-05-26T00:14:58.595Z,7.80
2019-05-26T00:17:27.731Z,8.35
2019-05-26T00:19:56.817Z,7.78
2019-05-26T00:22:25.874Z,7.83
2019-05-26T00:24:54.943Z,8.83
2019-05-26T00:27:24.468Z,8.50
2019-05-26T00:29:53.677Z,8.30
2019-05-26T00:32:22.729Z,8.70
2019-05-26T00:34:51.799Z,9.03
2019-05-26T00:37:20.919Z,7.28
2019-05-26T00:39:50.181Z,8.35
2019-05-26T00:42:19.782Z,9.18
2019-05-26T00:44:48.960Z,10.60
2019-05-26T00:47:18.103Z,10.80
2019-05-26T00:49:47.379Z,10.93
2019-05-26T00:52:16.577Z,11.60
2019-05-26T00:54:45.727Z,11.97
2019-05-26T00:57:14.918Z,11.08
2019-05-26T00:59:44.202Z,12.03
2019-05-26T01:02:13.497Z,12.10
2019-05-26T01:04:42.816Z,12.70
2019-05-26T01:07:11.906Z,12.35
2019-05-26T01:09:40.987Z,9.75
2019-05-26T01:12:10.101Z,14.25
2019-05-26T01:14:39.234Z,15.63
2019-05-26T01:17:08.384Z,15.72
2019-05-26T01:19:37.629Z,16.57
2019-05-26T01:22:06.703Z,15.30
2019-05-26T01:24:35.940Z,15.95
2019-05-26T01:27:05.508Z,17.30
2019-05-26T01:29:34.762Z,17.37
2019-05-26T01:32:03.979Z,16.85
2019-05-26T01:34:33.104Z,18.45
2019-05-26T01:37:02.883Z,17.77
2019-05-26T01:39:32.010Z,18.40
2019-05-26T01:42:01.179Z,16.85
2019-05-26T01:44:30.269Z,15.60
2019-05-26T01:46:59.398Z,18.62
2019-05-26T01:49:28.588Z,19.48
2019-05-26T01:51:58.134Z,11.08
2019-05-26T01:54:27.288Z,15.90
2019-05-26T01:56:56.679Z,21.65
2019-05-26T01:59:25.852Z,19.95
2019-05-26T02:01:58.572Z,21.90
2019-05-26T02:04:25.739Z,21.60
2019-05-26T02:06:54.828Z,20.08
2019-05-26T02:09:23.863Z,19.30
2019-05-26T02:11:53.043Z,21.02
2019-05-26T02:14:22.051Z,22.17
2019-05-26T02:16:51.183Z,22.65
2019-05-26T02:19:20.263Z,21.27
2019-05-26T02:21:49.329Z,21.30
2019-05-26T02:24:18.440Z,22.10
2019-05-26T02:26:47.553Z,20.25
2019-05-26T02:29:16.556Z,22.02
2019-05-26T02:31:45.859Z,20.62
2019-05-26T02:34:14.866Z,22.40
2019-05-26T02:36:44.036Z,20.25
2019-05-26T02:39:13.194Z,21.30
2019-05-26T02:41:42.443Z,13.18
2019-05-26T02:44:11.715Z,18.02
2019-05-26T02:46:40.823Z,25.08
2019-05-26T02:49:09.897Z,23.10
2019-05-26T02:51:38.891Z,16.62
2019-05-26T02:54:08.054Z,21.45
2019-05-26T02:56:37.381Z,16.10
2019-05-26T02:59:06.541Z,24.95
2019-05-26T03:01:35.888Z,17.27
2019-05-26T03:04:05.003Z,19.07
2019-05-26T03:06:35.358Z,24.50
2019-05-26T03:09:21.749Z,25.62
2019-05-26T03:11:39.723Z,25.60
2019-05-26T03:14:10.828Z,19.62
2019-05-26T03:16:42.946Z,24.72
2019-05-26T03:19:13.585Z,21.82
2019-05-26T03:21:45.149Z,25.27
2019-05-26T03:24:17.827Z,17.15
2019-05-26T03:26:47.103Z,25.20
2019-05-26T03:29:16.108Z,22.62
2019-05-26T03:31:45.254Z,23.92
2019-05-26T03:34:14.327Z,17.17
2019-05-26T03:36:43.407Z,17.45
2019-05-26T03:39:12.490Z,25.55
2019-05-26T03:41:41.645Z,20.32
2019-05-26T03:44:10.707Z,14.13
2019-05-26T03:46:39.708Z,23.73
2019-05-26T03:49:08.829Z,25.08
2019-05-26T03:51:37.860Z,23.40
2019-05-26T03:54:06.948Z,23.57
2019-05-26T03:56:36.069Z,22.48
2019-05-26T03:59:05.268Z,24.30
2019-05-26T04:01:34.362Z,24.72
2019-05-26T04:04:03.456Z,24.02
2019-05-26T04:06:32.553Z,22.20
2019-05-26T04:09:01.563Z,22.98
2019-05-26T04:11:30.747Z,19.55
2019-05-26T04:13:59.856Z,23.07
2019-05-26T04:16:48.055Z,21.57
2019-05-26T04:19:17.193Z,19.42
2019-05-26T04:21:46.276Z,18.67
2019-05-26T04:24:15.385Z,16.48
2019-05-26T04:26:44.608Z,18.77
2019-05-26T04:29:13.704Z,13.60
2019-05-26T04:31:42.852Z,21.17
2019-05-26T04:34:12.011Z,13.08
2019-05-26T04:36:41.169Z,16.40
2019-05-26T04:39:10.282Z,18.52
2019-05-26T04:41:39.439Z,15.88
2019-05-26T04:44:08.534Z,21.15
2019-05-26T04:46:37.516Z,21.07
2019-05-26T04:49:06.601Z,20.05
2019-05-26T04:51:35.675Z,17.00
2019-05-26T04:54:05.248Z,16.70
2019-05-26T04:56:34.324Z,18.42
2019-05-26T04:59:03.460Z,13.72
2019-05-26T05:01:32.656Z,18.40
2019-05-26T05:04:01.683Z,13.43
2019-05-26T05:06:30.760Z,18.45
2019-05-26T05:08:59.872Z,15.80
2019-05-26T05:11:28.947Z,13.55
2019-05-26T05:13:58.063Z,17.60
2019-05-26T05:16:27.092Z,12.37
2019-05-26T05:18:56.235Z,16.57
2019-05-26T05:21:25.343Z,17.70
2019-05-26T05:23:54.459Z,16.37
2019-05-26T05:26:23.483Z,17.95
2019-05-26T05:28:52.556Z,15.53
2019-05-26T05:31:21.605Z,16.45
2019-05-26T05:33:50.668Z,15.23
2019-05-26T05:36:19.781Z,16.10
2019-05-26T05:38:48.870Z,16.02
2019-05-26T05:41:17.950Z,13.85
2019-05-26T05:43:46.959Z,9.55
2019-05-26T05:46:16.094Z,14.13
2019-05-26T05:48:45.228Z,13.00
2019-05-26T05:51:14.388Z,11.83
2019-05-26T05:53:43.555Z,10.15
2019-05-26T05:56:12.659Z,10.45
2019-05-26T05:58:41.757Z,11.10
2019-05-26T06:01:10.831Z,8.30
2019-05-26T06:03:39.979Z,10.50
2019-05-26T06:06:09.265Z,10.35
2019-05-26T06:08:38.356Z,8.83
2019-05-26T06:11:16.548Z,10.10
2019-05-26T06:13:38.205Z,9.73
2019-05-26T06:16:07.947Z,10.40
2019-05-26T06:18:37.174Z,9.45
2019-05-26T06:21:06.839Z,9.73
2019-05-26T06:23:36.991Z,5.60
2019-05-26T06:26:06.436Z,7.15
2019-05-26T06:28:35.457Z,5.45
2019-05-26T06:31:11.017Z,5.00
2019-05-26T06:33:40.268Z,6.65
2019-05-26T06:36:09.425Z,6.62
2019-05-26T06:38:38.580Z,6.12
2019-05-26T06:41:07.668Z,7.75
2019-05-26T06:43:36.689Z,5.50
2019-05-26T06:46:05.894Z,7.30
2019-05-26T06:48:34.985Z,4.85
2019-05-26T06:51:04.090Z,7.03
2019-05-26T06:53:36.572Z,6.40
2019-05-26T06:56:04.212Z,5.00
2019-05-26T06:58:33.403Z,6.30
2019-05-26T07:01:03.415Z,3.20
2019-05-26T07:03:33.092Z,7.80
2019-05-26T07:06:02.224Z,6.05
2019-05-26T07:08:31.402Z,6.53
2019-05-26T07:11:00.636Z,6.15
2019-05-26T07:13:29.639Z,7.00
2019-05-26T07:15:58.770Z,6.67
2019-05-26T07:18:28.069Z,5.10
2019-05-26T07:20:57.189Z,7.47
2019-05-26T07:23:26.383Z,4.83
2019-05-26T07:25:55.479Z,5.15
2019-05-26T07:28:24.572Z,3.20
2019-05-26T07:30:53.691Z,3.87
2019-05-26T07:33:23.256Z,5.62
2019-05-26T07:35:52.351Z,3.40
2019-05-26T07:38:40.727Z,5.08
2019-05-26T07:41:09.879Z,5.03
2019-05-26T07:43:39.036Z,3.85
2019-05-26T07:46:08.303Z,5.40
2019-05-26T07:48:37.426Z,2.98
2019-05-26T07:51:06.622Z,2.62
2019-05-26T07:53:35.758Z,5.08
2019-05-26T07:56:05.218Z,6.58
2019-05-26T07:58:34.469Z,5.47
2019-05-26T08:01:03.688Z,7.20
2019-05-26T08:03:32.927Z,3.27
2019-05-26T08:06:02.221Z,4.35
2019-05-26T08:08:31.469Z,3.60
2019-05-26T08:11:00.636Z,2.95
2019-05-26T08:13:30.275Z,2.85
2019-05-26T08:15:59.672Z,5.55
2019-05-26T08:18:28.760Z,2.50
2019-05-26T08:20:57.890Z,4.05
2019-05-26T08:23:27.002Z,3.50
2019-05-26T08:25:56.322Z,3.52
2019-05-26T08:28:25.573Z,1.67
2019-05-26T08:30:54.720Z,2.00
2019-05-26T08:33:23.817Z,2.47
2019-05-26T08:35:52.967Z,3.75
2019-05-26T08:38:21.990Z,3.15
2019-05-26T08:40:51.228Z,2.90
2019-05-26T08:43:20.408Z,5.62
2019-05-26T08:45:49.595Z,2.05
2019-05-26T08:48:18.751Z,2.65
2019-05-26T08:50:47.886Z,4.15
2019-05-26T08:53:16.951Z,1.77
2019-05-26T08:55:46.056Z,3.95
2019-05-26T08:58:15.076Z,3.33
2019-05-26T09:00:44.076Z,2.35
2019-05-26T09:03:13.307Z,2.10
2019-05-26T09:05:42.403Z,2.67
2019-05-26T09:08:11.536Z,2.35
2019-05-26T09:10:40.652Z,2.22
2019-05-26T09:13:09.870Z,1.75
2019-05-26T09:15:39.013Z,3.52
2019-05-26T09:18:08.139Z,4.47
2019-05-26T09:20:37.197Z,2.12
2019-05-26T09:23:06.288Z,2.65
2019-05-26T09:25:35.407Z,3.02
2019-05-26T09:28:04.507Z,2.60
2019-05-26T09:30:33.665Z,5.40
2019-05-26T09:33:02.764Z,4.85
2019-05-26T09:35:31.768Z,2.30
2019-05-26T09:38:00.955Z,2.10
2019-05-26T09:40:30.094Z,2.72
2019-05-26T09:42:59.189Z,3.55
2019-05-26T09:45:28.310Z,2.60
2019-05-26T09:47:57.470Z,3.12
2019-05-26T09:50:27.628Z,2.30
2019-05-26T09:52:56.822Z,4.33
2019-05-26T09:55:25.872Z,3.58
2019-05-26T09:57:54.987Z,2.37
2019-05-26T10:00:25.352Z,3.83
2019-05-26T10:02:55.118Z,4.00
2019-05-26T10:05:24.338Z,3.98
2019-05-26T10:07:53.377Z,2.22
2019-05-26T10:10:22.505Z,2.22
2019-05-26T10:12:51.636Z,3.22
2019-05-26T10:15:20.830Z,3.25
2019-05-26T10:17:50.026Z,2.70
2019-05-26T10:20:19.368Z,2.00
2019-05-26T10:22:48.458Z,2.70
2019-05-26T10:25:17.751Z,2.95
2019-05-26T10:27:46.959Z,1.92
2019-05-26T10:30:17.258Z,1.85
2019-05-26T10:32:48.293Z,2.92
2019-05-26T10:35:17.789Z,3.02
2019-05-26T10:37:46.866Z,1.80
2019-05-26T10:40:16.699Z,2.98
2019-05-26T10:42:45.869Z,3.10
2019-05-26T10:45:15.560Z,2.30
2019-05-26T10:47:44.679Z,2.08
2019-05-26T10:50:14.487Z,2.02
2019-05-26T10:52:43.563Z,2.83
2019-05-26T10:55:12.726Z,2.20
2019-05-26T10:57:41.832Z,2.17
2019-05-26T11:00:11.335Z,2.10
2019-05-26T11:02:40.347Z,1.75
2019-05-26T11:05:09.673Z,1.50
2019-05-26T11:07:38.790Z,1.57
2019-05-26T11:10:09.761Z,1.45
2019-05-26T11:12:38.862Z,1.80
2019-05-26T11:15:08.345Z,1.60
2019-05-26T11:17:37.440Z,2.00
2019-05-26T11:20:07.870Z,1.20
2019-05-26T11:22:36.996Z,1.50
2019-05-26T11:25:06.524Z,1.30
2019-05-26T11:27:35.619Z,1.75
2019-05-26T11:30:05.388Z,1.75
2019-05-26T11:32:34.535Z,2.30
2019-05-26T11:35:04.305Z,1.32
2019-05-26T11:37:33.472Z,1.40
2019-05-26T11:40:03.971Z,1.98
2019-05-26T11:42:33.064Z,1.75
2019-05-26T11:45:02.160Z,1.75
2019-05-26T11:47:31.215Z,2.05
2019-05-26T11:50:00.263Z,2.35
2019-05-26T11:52:29.342Z,1.80
2019-05-26T11:54:58.452Z,1.55
2019-05-26T11:57:27.565Z,2.42
2019-05-26T11:59:56.649Z,1.60
2019-05-26T12:02:25.806Z,1.30
2019-05-26T12:04:54.973Z,1.45
2019-05-26T12:07:24.053Z,2.30
2019-05-26T12:09:53.136Z,2.25
2019-05-26T12:12:22.399Z,1.60
2019-05-26T12:14:51.394Z,1.55
2019-05-26T12:17:20.462Z,1.45
2019-05-26T12:19:49.578Z,1.55
2019-05-26T12:22:18.720Z,1.70
2019-05-26T12:24:47.804Z,1.40
2019-05-26T12:27:16.975Z,1.10
2019-05-26T12:29:46.042Z,1.22
2019-05-26T12:32:15.128Z,1.62
2019-05-26T12:34:44.223Z,1.22
2019-05-26T12:37:13.311Z,1.60
2019-05-26T12:39:42.556Z,1.30
2019-05-26T12:42:11.669Z,1.37
2019-05-26T12:44:49.121Z,1.30
2019-05-26T12:47:11.654Z,1.37
2019-05-26T12:49:40.739Z,1.20
2019-05-26T12:52:09.791Z,1.02
2019-05-26T12:54:38.789Z,1.07
2019-05-26T12:57:07.944Z,1.20
2019-05-26T12:59:37.051Z,1.20
2019-05-26T13:02:06.709Z,1.20
2019-05-26T13:04:35.773Z,1.10
2019-05-26T13:07:05.260Z,1.10
2019-05-26T13:09:34.380Z,1.10
2019-05-26T13:12:03.492Z,1.05
2019-05-26T13:14:32.653Z,1.10
2019-05-26T13:17:01.863Z,0.80
2019-05-26T13:19:31.390Z,1.02
2019-05-26T13:22:00.583Z,1.62
2019-05-26T13:24:29.727Z,1.07
2019-05-26T13:27:10.234Z,1.07
2019-05-26T13:29:39.375Z,1.22
2019-05-26T13:32:08.659Z,1.60
2019-05-26T13:34:37.692Z,0.90
2019-05-26T13:37:06.718Z,0.72
2019-05-26T13:39:35.715Z,1.00
2019-05-26T13:42:05.346Z,0.88
2019-05-26T13:44:34.414Z,1.00
2019-05-26T13:47:03.498Z,0.88
2019-05-26T13:49:32.676Z,0.72
2019-05-26T13:52:01.890Z,1.10
2019-05-26T13:54:31.094Z,1.10
2019-05-26T13:57:00.200Z,1.50
2019-05-26T13:59:29.467Z,1.55
2019-05-26T14:01:58.531Z,0.80
2019-05-26T14:04:27.636Z,1.02
2019-05-26T14:06:56.779Z,0.93
2019-05-26T14:09:25.791Z,0.93
2019-05-26T14:11:55.697Z,1.07
2019-05-26T14:14:24.780Z,0.98
2019-05-26T14:16:54.635Z,0.80
2019-05-26T14:19:26.073Z,1.22
2019-05-26T14:21:55.505Z,0.88
2019-05-26T14:24:24.663Z,1.15
2019-05-26T14:26:53.831Z,1.37
2019-05-26T14:29:22.979Z,0.82
2019-05-26T14:31:52.879Z,1.05
2019-05-26T14:34:22.303Z,0.90
2019-05-26T14:36:51.503Z,1.45
2019-05-26T14:39:21.531Z,1.35
2019-05-26T14:41:50.615Z,1.00
2019-05-26T14:44:19.745Z,0.98
2019-05-26T14:46:48.873Z,0.85
2019-05-26T14:49:18.242Z,1.20
2019-05-26T14:51:47.353Z,1.05
2019-05-26T14:54:16.549Z,1.30
2019-05-26T14:56:45.674Z,0.95
2019-05-26T14:59:14.936Z,1.00
2019-05-26T15:01:44.079Z,1.12
2019-05-26T15:04:13.172Z,1.10
2019-05-26T15:06:42.280Z,1.00
2019-05-26T15:09:24.333Z,1.42
2019-05-26T15:11:42.164Z,1.35
2019-05-26T15:14:11.219Z,0.70
2019-05-26T15:16:40.300Z,0.78
2019-05-26T15:19:09.518Z,1.30
2019-05-26T15:21:38.809Z,1.12
2019-05-26T15:24:07.891Z,1.42
2019-05-26T15:26:37.074Z,1.90
2019-05-26T15:29:07.042Z,1.20
2019-05-26T15:31:37.811Z,1.07
2019-05-26T15:34:06.934Z,1.22
2019-05-26T15:36:36.139Z,1.15
2019-05-26T15:39:07.452Z,1.52
2019-05-26T15:41:36.580Z,1.77
2019-05-26T15:44:05.988Z,1.10
2019-05-26T15:46:35.092Z,1.22
2019-05-26T15:49:04.200Z,1.47
2019-05-26T15:51:33.420Z,1.72
2019-05-26T15:54:02.529Z,0.78
2019-05-26T15:56:31.711Z,1.05
2019-05-26T15:59:00.974Z,0.75
2019-05-26T16:01:30.107Z,0.98
2019-05-26T16:03:59.252Z,1.00
2019-05-26T16:06:28.417Z,1.50
2019-05-26T16:08:57.488Z,1.12
2019-05-26T16:11:26.608Z,1.15
2019-05-26T16:13:55.679Z,1.15
2019-05-26T16:16:38.170Z,1.07
2019-05-26T16:18:55.600Z,1.00
2019-05-26T16:21:28.079Z,1.07
2019-05-26T16:23:55.503Z,1.00
2019-05-26T16:26:24.579Z,0.98
2019-05-26T16:28:53.659Z,1.20
2019-05-26T16:31:22.849Z,1.40
2019-05-26T16:33:52.056Z,1.52
2019-05-26T16:36:21.723Z,1.27
2019-05-26T16:38:51.018Z,1.25
2019-05-26T16:41:20.114Z,1.57
2019-05-26T16:43:49.251Z,1.32
2019-05-26T16:46:18.338Z,1.05
2019-05-26T16:48:47.463Z,1.15
2019-05-26T16:51:16.767Z,1.67
2019-05-26T16:53:45.922Z,1.70
2019-05-26T16:56:15.153Z,1.30
2019-05-26T16:58:44.271Z,1.62
2019-05-26T17:01:13.515Z,1.50
2019-05-26T17:03:42.723Z,1.32
2019-05-26T17:06:11.800Z,1.98
2019-05-26T17:08:40.890Z,1.17
2019-05-26T17:11:10.009Z,1.27
2019-05-26T17:13:39.335Z,1.50
2019-05-26T17:16:08.501Z,1.25
2019-05-26T17:18:37.705Z,1.15
2019-05-26T17:21:06.791Z,1.10
2019-05-26T17:23:35.874Z,1.52
2019-05-26T17:26:04.968Z,1.80
2019-05-26T17:28:34.084Z,1.82
2019-05-26T17:31:03.244Z,2.12
2019-05-26T17:33:33.264Z,1.72
2019-05-26T17:36:02.433Z,1.10
2019-05-26T17:38:31.705Z,2.17
2019-05-26T17:41:00.938Z,1.67
2019-05-26T17:43:30.065Z,1.35
2019-05-26T17:45:59.176Z,2.25
2019-05-26T17:48:28.278Z,1.17
2019-05-26T17:50:57.397Z,1.92
2019-05-26T17:53:26.599Z,1.32
2019-05-26T17:55:55.682Z,2.10
2019-05-26T17:58:24.776Z,1.67
2019-05-26T18:00:53.926Z,1.50
2019-05-26T18:03:23.071Z,2.15
2019-05-26T18:05:52.137Z,1.30
2019-05-26T18:08:21.248Z,1.70
2019-05-26T18:10:50.309Z,1.27
2019-05-26T18:13:19.453Z,1.42
2019-05-26T18:15:48.682Z,1.52
2019-05-26T18:18:17.767Z,1.20
2019-05-26T18:20:46.924Z,1.10
2019-05-26T18:23:16.120Z,1.20
2019-05-26T18:25:45.153Z,1.45
2019-05-26T18:28:14.231Z,1.98
2019-05-26T18:30:43.448Z,1.27
2019-05-26T18:33:12.635Z,1.77
2019-05-26T18:35:41.786Z,1.35
2019-05-26T18:38:11.019Z,2.05
2019-05-26T18:40:41.131Z,1.10
2019-05-26T18:43:10.288Z,1.50
2019-05-26T18:45:39.507Z,1.30
2019-05-26T18:48:08.606Z,1.87
2019-05-26T18:50:37.683Z,2.02
2019-05-26T18:53:06.827Z,1.60
2019-05-26T18:55:35.907Z,1.10
2019-05-26T18:58:11.060Z,1.70
2019-05-26T19:00:40.221Z,1.62
2019-05-26T19:03:09.323Z,0.95
2019-05-26T19:05:38.757Z,2.25
2019-05-26T19:08:08.030Z,1.80
2019-05-26T19:10:37.149Z,1.45
2019-05-26T19:13:06.271Z,2.27
2019-05-26T19:15:35.490Z,1.20
2019-05-26T19:18:18.875Z,1.98
2019-05-26T19:20:35.470Z,2.33
2019-05-26T19:23:04.614Z,2.30
2019-05-26T19:25:33.675Z,3.12
2019-05-26T19:28:02.788Z,3.35
2019-05-26T19:30:32.263Z,2.05
2019-05-26T19:33:01.477Z,1.60
2019-05-26T19:35:30.658Z,1.60
2019-05-26T19:37:59.802Z,1.65
2019-05-26T19:40:28.935Z,1.10
2019-05-26T19:42:58.031Z,1.57
2019-05-26T19:45:27.219Z,1.50
2019-05-26T19:47:56.328Z,1.65
2019-05-26T19:50:25.582Z,1.22
2019-05-26T19:52:54.771Z,2.25
2019-05-26T19:55:23.948Z,2.00
2019-05-26T19:57:53.202Z,2.00
2019-05-26T20:00:22.574Z,2.12
2019-05-26T20:02:51.741Z,2.40
2019-05-26T20:05:20.923Z,2.52
2019-05-26T20:07:50.009Z,2.47
2019-05-26T20:10:19.571Z,1.60
2019-05-26T20:12:48.696Z,1.27
2019-05-26T20:15:17.756Z,2.55
2019-05-26T20:17:46.870Z,1.92
2019-05-26T20:20:16.443Z,1.75
2019-05-26T20:22:45.538Z,1.70
2019-05-26T20:25:14.611Z,3.80
2019-05-26T20:27:43.711Z,3.00
2019-05-26T20:30:13.271Z,3.20
2019-05-26T20:32:42.450Z,3.15
2019-05-26T20:35:11.680Z,3.65
2019-05-26T20:37:40.782Z,2.98
2019-05-26T20:40:10.506Z,3.50
2019-05-26T20:42:39.714Z,3.87
2019-05-26T20:45:09.479Z,3.90
2019-05-26T20:47:38.658Z,4.67
2019-05-26T20:50:08.762Z,4.50
2019-05-26T20:52:37.837Z,3.20
2019-05-26T20:55:07.224Z,3.67
2019-05-26T20:57:36.484Z,3.00
2019-05-26T21:00:06.770Z,3.90
2019-05-26T21:02:35.903Z,3.95
2019-05-26T21:05:05.659Z,4.10
2019-05-26T21:07:34.747Z,4.17
2019-05-26T21:10:04.196Z,3.45
2019-05-26T21:12:33.352Z,2.85
2019-05-26T21:15:02.510Z,3.75
2019-05-26T21:17:31.784Z,3.67
2019-05-26T21:20:01.294Z,4.60
2019-05-26T21:22:30.384Z,4.85
2019-05-26T21:24:59.732Z,4.30
2019-05-26T21:27:47.947Z,3.87
2019-05-26T21:30:18.768Z,4.95
2019-05-26T21:32:48.016Z,5.12
2019-05-26T21:35:17.200Z,5.10
2019-05-26T21:37:46.302Z,5.22
2019-05-26T21:40:15.359Z,5.10
2019-05-26T21:42:44.470Z,4.45
2019-05-26T21:45:14.197Z,5.50
2019-05-26T21:47:43.259Z,5.25
2019-05-26T21:50:13.295Z,4.15
2019-05-26T21:52:42.399Z,5.60
2019-05-26T21:55:11.667Z,4.67
2019-05-26T21:57:40.949Z,5.40
2019-05-26T22:00:13.090Z,5.72
2019-05-26T22:02:42.180Z,6.10
2019-05-26T22:05:12.124Z,6.47
2019-05-26T22:07:41.340Z,6.37
2019-05-26T22:10:10.453Z,6.30
2019-05-26T22:12:39.526Z,7.10
2019-05-26T22:15:09.361Z,6.67
2019-05-26T22:17:38.535Z,6.25
2019-05-26T22:20:07.905Z,7.83
2019-05-26T22:22:36.975Z,7.40
2019-05-26T22:25:06.193Z,6.12
2019-05-26T22:27:35.678Z,6.87
2019-05-26T22:30:05.487Z,7.03
2019-05-26T22:32:34.614Z,7.42
2019-05-26T22:35:03.746Z,6.72
2019-05-26T22:37:32.916Z,6.53
2019-05-26T22:40:01.990Z,7.42
2019-05-26T22:42:31.144Z,7.05
2019-05-26T22:45:00.273Z,7.08
2019-05-26T22:47:29.450Z,7.10
2019-05-26T22:49:59.568Z,7.55
2019-05-26T22:52:28.692Z,7.22
2019-05-26T22:54:57.687Z,7.40
2019-05-26T22:57:26.617Z,6.70
2019-05-26T22:59:55.718Z,6.97
2019-05-26T23:02:24.789Z,7.42
2019-05-26T23:04:53.959Z,7.10
2019-05-26T23:07:22.978Z,6.25
2019-05-26T23:09:51.972Z,6.72
2019-05-26T23:12:21.072Z,7.35
2019-05-26T23:14:50.179Z,6.10
2019-05-26T23:17:19.274Z,5.90
2019-05-26T23:19:48.323Z,6.58
2019-05-26T23:22:17.414Z,5.70
2019-05-26T23:24:46.551Z,5.72
2019-05-26T23:27:15.607Z,5.17
2019-05-26T23:29:44.648Z,5.62
2019-05-26T23:32:13.695Z,6.08
2019-05-26T23:34:42.785Z,6.12
2019-05-26T23:37:11.936Z,5.85
2019-05-26T23:39:41.031Z,5.20
2019-05-26T23:42:10.083Z,5.12
2019-05-26T23:44:39.330Z,5.92
2019-05-26T23:47:08.487Z,4.47
2019-05-26T23:49:37.602Z,4.37
2019-05-26T23:52:07.064Z,5.30
2019-05-26T23:54:36.332Z,4.60
2019-05-26T23:57:05.469Z,5.08
2019-05-26T23:59:34.623Z,4.42
